Time,TemperatureF,DewpointF,PressureIn,WindDirection,WindDirectionDegrees,WindSpeedMPH,WindSpeedGustMPH,Humidity,HourlyPrecipIn,Conditions,Clouds,dailyrainin,SoftwareType,DateUTC
2013-03-11 07:43:00,31.0,29.0,-100.00,NW,315,4.0,7.0,93,-99.99,,,-99.99,,2013-03-11 12:43:00,
2013-03-11 07:53:00,31.0,29.0,-100.00,NW,315,4.0,7.0,93,-99.99,,,-99.99,,2013-03-11 12:53:00,
2013-03-11 08:02:00,31.0,29.0,-100.00,NW,315,4.0,7.0,93,-99.99,,,-99.99,,2013-03-11 13:02:00,
2013-03-11 08:12:00,31.0,29.0,-100.00,NW,315,4.0,7.0,93,-99.99,,,-99.99,,2013-03-11 13:12:00,
2013-03-11 09:33:00,32.0,30.0,-100.00,NNW,340,6.0,12.0,93,-99.99,,,-99.99,,2013-03-11 14:33:00,
2013-03-11 09:43:00,32.0,30.0,-100.00,NNW,340,6.0,12.0,93,-99.99,,,-99.99,,2013-03-11 14:43:00,
2013-03-11 09:53:00,32.0,30.0,-100.00,NNW,340,6.0,12.0,93,-99.99,,,-99.99,,2013-03-11 14:53:00,
2013-03-11 10:02:00,32.0,30.0,-100.00,NNW,340,6.0,12.0,93,-99.99,,,-99.99,,2013-03-11 15:02:00,
2013-03-11 10:12:00,32.0,30.0,-100.00,NNW,340,6.0,12.0,93,-99.99,,,-99.99,,2013-03-11 15:12:00,
2013-03-11 10:32:00,32.0,30.0,-100.00,NNW,340,6.0,10.0,91,-99.99,,,-99.99,,2013-03-11 15:32:00,
2013-03-11 10:43:00,32.0,30.0,-100.00,NNW,340,6.0,10.0,91,-99.99,,,-99.99,,2013-03-11 15:43:00,
2013-03-11 10:53:00,32.0,30.0,-100.00,NNW,340,6.0,10.0,91,-99.99,,,-99.99,,2013-03-11 15:53:00,
2013-03-11 11:02:00,32.0,30.0,-100.00,NNW,340,6.0,10.0,91,-99.99,,,-99.99,,2013-03-11 16:02:00,
2013-03-11 11:12:00,32.0,30.0,-100.00,NNW,340,6.0,10.0,91,-99.99,,,-99.99,,2013-03-11 16:12:00,
2013-03-11 11:13:00,33.0,30.0,-100.00,North,0,7.0,14.0,89,-99.99,,,-99.99,,2013-03-11 16:13:00,
2013-03-11 11:32:00,33.0,30.0,-100.00,North,0,7.0,14.0,89,-99.99,,,-99.99,,2013-03-11 16:32:00,
2013-03-11 11:43:00,33.0,30.0,-100.00,North,0,7.0,14.0,89,-99.99,,,-99.99,,2013-03-11 16:43:00,
2013-03-11 11:52:00,33.0,30.0,-100.00,North,0,7.0,14.0,89,-99.99,,,-99.99,,2013-03-11 16:52:00,
2013-03-11 12:02:00,33.0,30.0,-100.00,North,0,7.0,14.0,89,-99.99,,,-99.99,,2013-03-11 17:02:00,
2013-03-11 13:33:00,33.0,29.0,-100.00,North,0,5.0,10.0,83,-99.99,,,-99.99,,2013-03-11 18:33:00,
2013-03-11 13:43:00,34.0,29.0,-100.00,North,350,4.0,9.0,82,-99.99,,,-99.99,,2013-03-11 18:43:00,
2013-03-11 13:53:00,34.0,29.0,-100.00,North,350,4.0,9.0,82,-99.99,,,-99.99,,2013-03-11 18:53:00,
2013-03-11 14:02:00,34.0,29.0,-100.00,North,350,4.0,9.0,82,-99.99,,,-99.99,,2013-03-11 19:02:00,
2013-03-11 14:12:00,34.0,29.0,-100.00,North,350,4.0,9.0,82,-99.99,,,-99.99,,2013-03-11 19:12:00,
2013-03-11 14:53:00,34.0,29.0,-100.00,NW,315,5.0,12.0,80,-99.99,,,-99.99,,2013-03-11 19:53:00,
2013-03-11 15:02:00,34.0,29.0,-100.00,NW,315,5.0,12.0,80,-99.99,,,-99.99,,2013-03-11 20:02:00,
2013-03-11 15:12:00,34.0,29.0,-100.00,NW,315,5.0,12.0,80,-99.99,,,-99.99,,2013-03-11 20:12:00,
2013-03-11 15:22:00,34.0,29.0,-100.00,NW,315,5.0,12.0,80,-99.99,,,-99.99,,2013-03-11 20:22:00,
2013-03-11 15:32:00,34.0,29.0,-100.00,NW,315,5.0,12.0,80,-99.99,,,-99.99,,2013-03-11 20:32:00,
2013-03-11 17:22:00,32.0,26.0,-100.00,NNW,330,9.0,17.0,77,-99.99,,,-99.99,,2013-03-11 22:22:00,
2013-03-11 17:32:00,32.0,26.0,-100.00,NNW,330,9.0,17.0,77,-99.99,,,-99.99,,2013-03-11 22:32:00,
2013-03-11 17:43:00,32.0,26.0,-100.00,NNW,330,9.0,17.0,77,-99.99,,,-99.99,,2013-03-11 22:43:00,
2013-03-11 17:52:00,32.0,26.0,-100.00,NNW,330,9.0,17.0,77,-99.99,,,-99.99,,2013-03-11 22:52:00,
2013-03-11 18:53:00,31.0,24.0,-100.00,NNW,330,8.0,13.0,77,-99.99,,,-99.99,,2013-03-11 23:53:00,
2013-03-11 19:02:00,31.0,24.0,-100.00,NNW,330,8.0,13.0,77,-99.99,,,-99.99,,2013-03-12 00:02:00,
2013-03-11 19:12:00,31.0,24.0,-100.00,NNW,330,8.0,13.0,77,-99.99,,,-99.99,,2013-03-12 00:12:00,
2013-03-11 19:22:00,31.0,24.0,-100.00,NNW,330,8.0,13.0,77,-99.99,,,-99.99,,2013-03-12 00:22:00,
2013-03-11 21:52:00,29.0,23.0,-100.00,NNW,335,7.0,19.0,79,-99.99,,,-99.99,,2013-03-12 02:52:00,
2013-03-11 22:02:00,29.0,23.0,-100.00,NNW,335,7.0,19.0,79,-99.99,,,-99.99,,2013-03-12 03:02:00,
2013-03-11 22:12:00,29.0,23.0,-100.00,NNW,335,7.0,19.0,79,-99.99,,,-99.99,,2013-03-12 03:12:00,
2013-03-11 22:22:00,29.0,23.0,-100.00,NNW,335,7.0,19.0,79,-99.99,,,-99.99,,2013-03-12 03:22:00,
2013-03-11 23:22:00,28.0,20.0,-100.00,WNW,300,6.0,12.0,73,-99.99,,,-99.99,,2013-03-12 04:22:00,
2013-03-11 23:32:00,28.0,20.0,-100.00,WNW,300,6.0,12.0,73,-99.99,,,-99.99,,2013-03-12 04:32:00,
2013-03-11 23:43:00,28.0,20.0,-100.00,WNW,300,6.0,12.0,73,-99.99,,,-99.99,,2013-03-12 04:43:00,
2013-03-11 23:52:00,28.0,20.0,-100.00,WNW,300,6.0,12.0,73,-99.99,,,-99.99,,2013-03-12 04:52:00,